Time;durP1;ratioP1;P1;durP2;ratioP2;P2;SDS_P1;SDS_P2;PMS_P1;PMS_P2;Temp;Humidity;BMP_temperature;BMP_pressure;BME280_temperature;BME280_humidity;BME280_pressure;Samples;Min_cycle;Max_cycle;Signal;HPM_P1;HPM_P2
2023/08/01 00:02:06;;;;;;;1.83;1.55;;;;;;;17.39;100.00;99703.97;6063547;29;20229;-66
2023/08/01 00:05:27;;;;;;;1.52;1.42;;;;;;;17.31;100.00;99717.78;6039320;29;20237;-66
2023/08/01 00:08:49;;;;;;;1.83;1.73;;;;;;;17.27;100.00;99708.38;6041181;29;20252;-66
2023/08/01 00:12:10;;;;;;;1.45;1.40;;;;;;;17.28;100.00;99693.69;6066223;29;20233;-66
2023/08/01 00:15:31;;;;;;;1.73;1.63;;;;;;;17.28;100.00;99685.50;6038106;29;20321;-65
2023/08/01 00:18:51;;;;;;;1.92;1.20;;;;;;;17.20;100.00;99685.72;6049380;29;20240;-66
2023/08/01 00:22:12;;;;;;;1.35;1.25;;;;;;;17.15;100.00;99667.25;6070333;29;20312;-66
2023/08/01 00:25:35;;;;;;;1.45;1.35;;;;;;;17.01;100.00;99660.13;6055674;29;20248;-66
2023/08/01 00:28:56;;;;;;;2.42;1.85;;;;;;;16.92;100.00;99663.28;6058651;29;20237;-66
2023/08/01 00:32:17;;;;;;;2.30;1.90;;;;;;;16.89;100.00;99656.34;6048807;29;20237;-65
2023/08/01 00:35:38;;;;;;;2.67;1.65;;;;;;;16.90;100.00;99657.19;6049558;29;20233;-66
2023/08/01 00:38:59;;;;;;;1.55;1.45;;;;;;;16.82;100.00;99644.59;6040352;29;20320;-65
2023/08/01 00:42:21;;;;;;;1.50;1.38;;;;;;;17.00;100.00;99633.94;6059600;29;20229;-66
2023/08/01 00:45:42;;;;;;;1.70;1.60;;;;;;;16.98;100.00;99621.59;6053056;29;20237;-66
2023/08/01 00:49:03;;;;;;;1.95;1.80;;;;;;;17.10;100.00;99617.19;6047201;29;20627;-67
2023/08/01 00:52:24;;;;;;;2.05;1.92;;;;;;;17.14;100.00;99616.59;6062838;29;20328;-67
2023/08/01 00:55:46;;;;;;;1.73;1.63;;;;;;;17.06;100.00;99613.22;6035399;29;20323;-66
2023/08/01 00:59:08;;;;;;;1.83;1.73;;;;;;;17.06;100.00;99610.50;6054694;29;20565;-66
2023/08/01 01:02:30;;;;;;;2.00;1.85;;;;;;;17.17;100.00;99609.84;6060004;29;20225;-66
2023/08/01 01:06:01;;;;;;;10.40;2.70;;;;;;;17.21;100.00;99606.50;6063493;29;20241;-66
2023/08/01 01:09:22;;;;;;;3.67;2.17;;;;;;;17.25;100.00;99602.31;6047800;29;21825;-65
2023/08/01 01:12:43;;;;;;;1.75;1.65;;;;;;;17.13;100.00;99597.69;6048242;29;20237;-66
2023/08/01 01:16:05;;;;;;;1.63;1.53;;;;;;;17.30;100.00;99590.78;6056451;29;20242;-66
2023/08/01 01:19:26;;;;;;;2.90;1.65;;;;;;;17.06;100.00;99586.00;6055717;29;20265;-65
2023/08/01 01:22:48;;;;;;;2.17;1.95;;;;;;;17.09;100.00;99586.41;6052636;29;20241;-65
2023/08/01 01:26:10;;;;;;;3.17;1.50;;;;;;;17.13;100.00;99582.22;6028693;29;20246;-66
2023/08/01 01:29:34;;;;;;;1.98;1.70;;;;;;;17.18;100.00;99578.84;6051913;29;20245;-66
2023/08/01 01:32:55;;;;;;;2.40;2.20;;;;;;;17.28;100.00;99565.66;6046827;29;20234;-66
2023/08/01 01:36:16;;;;;;;3.20;2.78;;;;;;;17.12;100.00;99569.66;6051358;29;21107;-66
2023/08/01 01:39:39;;;;;;;2.30;1.90;;;;;;;16.95;100.00;99560.22;6057744;29;20257;-66
2023/08/01 01:43:01;;;;;;;2.47;2.30;;;;;;;16.99;100.00;99547.00;6055892;29;20237;-66
2023/08/01 01:46:22;;;;;;;4.32;2.42;;;;;;;17.08;100.00;99549.34;6061602;29;20229;-66
2023/08/01 01:49:43;;;;;;;3.47;3.17;;;;;;;16.94;100.00;99547.63;6049626;29;20257;-66
2023/08/01 01:53:04;;;;;;;3.08;2.88;;;;;;;17.07;100.00;99544.94;6053991;29;21081;-65
2023/08/01 01:56:26;;;;;;;2.35;2.08;;;;;;;17.33;100.00;99531.28;6036164;29;20237;-65
2023/08/01 01:59:47;;;;;;;2.78;2.58;;;;;;;17.27;100.00;99517.69;6039625;29;20241;-66
2023/08/01 02:03:10;;;;;;;3.08;2.88;;;;;;;17.12;100.00;99522.50;6044273;29;20238;-66
2023/08/01 02:06:30;;;;;;;3.03;2.83;;;;;;;17.03;100.00;99516.44;6048132;29;20233;-66
2023/08/01 02:09:51;;;;;;;3.73;3.17;;;;;;;17.09;100.00;99515.59;6042013;29;20229;-66
2023/08/01 02:13:13;;;;;;;2.97;2.75;;;;;;;17.22;100.00;99512.00;6049571;29;20836;-66
2023/08/01 02:16:34;;;;;;;3.60;3.30;;;;;;;17.19;100.00;99505.09;6040088;29;21609;-66
2023/08/01 02:19:55;;;;;;;3.10;2.90;;;;;;;17.09;100.00;99510.16;6034181;29;20245;-65
2023/08/01 02:23:16;;;;;;;3.63;3.33;;;;;;;16.97;100.00;99508.28;6052733;29;20244;-66
2023/08/01 02:26:38;;;;;;;3.55;3.25;;;;;;;17.02;100.00;99505.78;6041649;29;20237;-66
2023/08/01 02:30:00;;;;;;;3.17;2.97;;;;;;;17.15;100.00;99500.28;6046568;29;20269;-66
2023/08/01 02:33:21;;;;;;;4.70;4.07;;;;;;;16.98;100.00;99499.88;6046150;29;20604;-66
2023/08/01 02:36:41;;;;;;;3.20;3.00;;;;;;;17.12;100.00;99489.81;6056674;29;20234;-66
2023/08/01 02:40:07;;;;;;;3.72;3.42;;;;;;;17.12;100.00;99487.09;6057808;29;20244;-66
2023/08/01 02:43:27;;;;;;;4.40;4.10;;;;;;;17.08;100.00;99489.44;6047937;29;20253;-66
2023/08/01 02:46:50;;;;;;;4.18;3.85;;;;;;;17.18;100.00;99483.53;6054251;29;20225;-65
2023/08/01 02:50:11;;;;;;;4.03;3.65;;;;;;;17.15;100.00;99484.78;6044372;29;20694;-66
2023/08/01 02:53:32;;;;;;;5.00;4.60;;;;;;;17.17;100.00;99474.50;6036569;29;20229;-66
2023/08/01 02:56:52;;;;;;;7.53;4.28;;;;;;;17.17;100.00;99470.94;6043427;29;20241;-66
2023/08/01 03:00:14;;;;;;;4.22;3.88;;;;;;;17.29;100.00;99470.06;6047458;29;20241;-66
2023/08/01 03:03:36;;;;;;;4.93;4.53;;;;;;;17.38;100.00;99474.25;6050171;29;20356;-67
2023/08/01 03:06:57;;;;;;;5.78;5.18;;;;;;;17.24;100.00;99474.50;6057963;29;20229;-65
2023/08/01 03:10:18;;;;;;;7.45;4.43;;;;;;;17.27;100.00;99464.00;6052024;29;20233;-66
2023/08/01 03:13:39;;;;;;;4.97;4.55;;;;;;;17.35;100.00;99455.63;6035754;29;20237;-66
2023/08/01 03:17:00;;;;;;;5.15;4.75;;;;;;;17.27;100.00;99469.44;6047921;29;20241;-66
2023/08/01 03:20:22;;;;;;;5.38;4.35;;;;;;;17.17;100.00;99457.31;6046627;29;20237;-66
2023/08/01 03:23:43;;;;;;;8.60;4.83;;;;;;;17.20;100.00;99444.13;6044705;29;20237;-66
2023/08/01 03:27:05;;;;;;;5.20;4.72;;;;;;;17.11;100.00;99442.69;6055420;29;20644;-65
2023/08/01 03:30:26;;;;;;;5.00;4.60;;;;;;;17.18;100.00;99443.53;6048907;29;20257;-66
2023/08/01 03:33:49;;;;;;;4.30;3.90;;;;;;;17.24;100.00;99450.84;6031193;29;20461;-65
2023/08/01 03:37:11;;;;;;;5.53;4.97;;;;;;;17.17;100.00;99447.28;6056207;29;20237;-66
2023/08/01 03:40:33;;;;;;;4.97;4.57;;;;;;;17.11;100.00;99448.13;6041102;29;20229;-65
2023/08/01 03:43:54;;;;;;;5.72;5.18;;;;;;;17.14;100.00;99449.59;6051709;29;20359;-66
2023/08/01 03:47:15;;;;;;;5.43;4.80;;;;;;;17.29;100.00;99433.84;6063620;29;20329;-66
2023/08/01 03:50:36;;;;;;;4.70;4.18;;;;;;;17.23;100.00;99434.72;6036915;29;20233;-65
2023/08/01 03:53:58;;;;;;;5.75;5.20;;;;;;;17.22;100.00;99428.41;6061170;29;20317;-66
2023/08/01 03:57:21;;;;;;;5.43;4.95;;;;;;;17.24;100.00;99433.66;6060974;29;20237;-66
2023/08/01 04:00:42;;;;;;;6.18;4.70;;;;;;;17.16;100.00;99421.09;6048179;29;20748;-66
2023/08/01 04:04:03;;;;;;;4.85;4.45;;;;;;;17.13;100.00;99424.25;6044617;29;20237;-65
2023/08/01 04:07:24;;;;;;;6.20;5.20;;;;;;;17.17;100.00;99427.38;6043439;29;20721;-67
2023/08/01 04:10:46;;;;;;;5.50;5.00;;;;;;;17.13;100.00;99431.56;6043734;29;20233;-65
2023/08/01 04:14:06;;;;;;;5.70;5.10;;;;;;;17.15;100.00;99427.59;6040833;29;20238;-66
2023/08/01 04:17:29;;;;;;;5.13;4.63;;;;;;;17.18;100.00;99426.34;6049317;29;20232;-66
2023/08/01 04:20:50;;;;;;;4.73;4.40;;;;;;;17.12;100.00;99427.19;6056453;29;20232;-66
2023/08/01 04:24:11;;;;;;;6.20;5.03;;;;;;;17.16;100.00;99429.28;6059783;29;20238;-67
2023/08/01 04:27:33;;;;;;;5.20;4.80;;;;;;;17.10;100.00;99427.41;6055731;29;20233;-67
2023/08/01 04:30:54;;;;;;;5.60;5.10;;;;;;;17.20;100.00;99429.69;6049438;29;20287;-66
2023/08/01 04:34:17;;;;;;;5.70;4.68;;;;;;;17.21;100.00;99425.91;6025978;29;20257;-65
2023/08/01 04:37:39;;;;;;;4.15;3.72;;;;;;;17.16;100.00;99426.56;6048164;29;20246;-65
2023/08/01 04:41:00;;;;;;;4.90;4.15;;;;;;;17.18;100.00;99424.44;6050881;29;20803;-66
2023/08/01 04:44:22;;;;;;;6.30;5.70;;;;;;;17.14;100.00;99436.81;6058195;29;20234;-66
2023/08/01 04:47:43;;;;;;;4.20;3.60;;;;;;;17.27;100.00;99438.69;6058583;29;20518;-67
2023/08/01 04:51:04;;;;;;;10.77;5.00;;;;;;;17.15;100.00;99437.63;6047930;29;20237;-66
2023/08/01 04:54:24;;;;;;;4.90;4.50;;;;;;;17.21;100.00;99434.09;6038813;29;20625;-66
2023/08/01 04:57:45;;;;;;;4.93;4.43;;;;;;;17.22;100.00;99431.16;6057654;29;20245;-67
2023/08/01 05:01:07;;;;;;;7.05;5.20;;;;;;;17.21;100.00;99423.19;6057385;29;20797;-67
2023/08/01 05:04:28;;;;;;;5.32;4.85;;;;;;;17.16;100.00;99432.00;6046317;29;20644;-67
2023/08/01 05:07:49;;;;;;;8.88;4.85;;;;;;;17.25;100.00;99429.88;6048654;29;20240;-67
2023/08/01 05:11:09;;;;;;;6.30;5.70;;;;;;;17.33;100.00;99422.31;6059861;29;22739;-66
2023/08/01 05:14:30;;;;;;;5.60;5.10;;;;;;;17.41;100.00;99422.06;6053002;29;20237;-66
2023/08/01 05:17:53;;;;;;;4.35;4.05;;;;;;;17.33;100.00;99425.03;6037531;29;20643;-66
2023/08/01 05:21:14;;;;;;;4.63;4.22;;;;;;;17.38;100.00;99424.38;6059281;29;20233;-67
2023/08/01 05:24:34;;;;;;;4.60;4.18;;;;;;;17.21;100.00;99424.00;6043720;29;20328;-67
2023/08/01 05:27:55;;;;;;;5.23;4.20;;;;;;;17.22;100.00;99431.16;6043534;29;20241;-66
2023/08/01 05:31:16;;;;;;;5.72;5.22;;;;;;;17.30;100.00;99421.88;6057009;29;20257;-66
2023/08/01 05:34:38;;;;;;;4.67;4.23;;;;;;;17.29;100.00;99421.03;6054125;29;20237;-66
2023/08/01 05:38:00;;;;;;;5.33;4.93;;;;;;;17.32;100.00;99423.34;6054427;29;20233;-67
2023/08/01 05:41:21;;;;;;;6.68;5.00;;;;;;;17.51;100.00;99427.09;6069559;29;20229;-66
2023/08/01 05:44:44;;;;;;;6.15;4.63;;;;;;;17.37;100.00;99423.56;6048821;29;20252;-66
2023/08/01 05:48:05;;;;;;;5.70;4.63;;;;;;;17.30;100.00;99421.88;6065879;29;20249;-67
2023/08/01 05:51:28;;;;;;;7.27;5.37;;;;;;;17.47;100.00;99431.25;6067523;29;20233;-67
2023/08/01 05:54:48;;;;;;;5.22;4.60;;;;;;;17.45;100.00;99441.53;6059802;29;20237;-67
2023/08/01 05:58:09;;;;;;;8.90;4.57;;;;;;;17.45;100.00;99423.31;6060046;29;20237;-67
2023/08/01 06:01:30;;;;;;;5.83;3.17;;;;;;;17.42;100.00;99426.44;6049573;29;20810;-66
2023/08/01 06:04:51;;;;;;;4.68;3.40;;;;;;;17.53;100.00;99417.66;6043744;29;20233;-67
2023/08/01 06:08:15;;;;;;;4.35;3.45;;;;;;;17.49;100.00;99427.31;6046804;29;20229;-66
2023/08/01 06:11:36;;;;;;;7.80;4.80;;;;;;;17.25;100.00;99427.97;6052025;29;20510;-67
2023/08/01 06:14:57;;;;;;;8.43;5.10;;;;;;;17.46;100.00;99424.97;6033040;29;20242;-66
2023/08/01 06:18:18;;;;;;;5.87;4.27;;;;;;;17.49;100.00;99416.41;6045027;29;20324;-67
2023/08/01 06:21:39;;;;;;;4.73;3.60;;;;;;;17.48;100.00;99420.13;6045060;29;20253;-67
2023/08/01 06:25:01;;;;;;;3.83;3.53;;;;;;;17.35;100.00;99428.38;6047275;29;20245;-65
2023/08/01 06:28:22;;;;;;;7.47;3.97;;;;;;;17.21;100.00;99415.84;6037006;29;20237;-66
2023/08/01 06:31:43;;;;;;;6.53;3.03;;;;;;;17.35;100.00;99413.91;6053649;29;20233;-67
2023/08/01 06:35:04;;;;;;;3.38;2.97;;;;;;;17.68;100.00;99417.38;6068000;29;20261;-67
2023/08/01 06:38:25;;;;;;;4.57;3.60;;;;;;;17.62;100.00;99426.41;6054405;29;20248;-66
2023/08/01 06:41:47;;;;;;;3.80;3.40;;;;;;;17.56;100.00;99438.19;6062279;29;20233;-67
2023/08/01 06:45:08;;;;;;;5.20;3.72;;;;;;;17.46;100.00;99438.59;6054611;29;20249;-67
2023/08/01 06:48:29;;;;;;;6.15;3.42;;;;;;;17.42;100.00;99452.84;6045475;29;20230;-67
2023/08/01 06:51:49;;;;;;;7.97;3.13;;;;;;;17.48;100.00;99433.75;6069543;29;20612;-66
2023/08/01 06:55:10;;;;;;;5.00;2.50;;;;;;;17.54;100.00;99445.75;6051184;29;20328;-67
2023/08/01 06:58:33;;;;;;;3.47;3.05;;;;;;;17.75;100.00;99450.03;6053305;29;20238;-66
2023/08/01 07:01:53;;;;;;;4.53;2.50;;;;;;;17.65;100.00;99446.94;6061482;29;20245;-67
2023/08/01 07:05:14;;;;;;;3.80;2.17;;;;;;;17.70;100.00;99461.59;6048909;29;20270;-66
2023/08/01 07:08:35;;;;;;;2.22;2.03;;;;;;;17.75;100.00;99458.22;6057565;29;20229;-67
2023/08/01 07:11:55;;;;;;;2.97;1.77;;;;;;;17.97;100.00;99454.97;6061156;29;20324;-67
2023/08/01 07:15:17;;;;;;;3.35;2.58;;;;;;;17.85;100.00;99466.78;6051532;29;21777;-67
2023/08/01 07:18:38;;;;;;;3.67;2.50;;;;;;;17.86;100.00;99468.44;6049308;29;20244;-68
2023/08/01 07:21:59;;;;;;;2.47;2.28;;;;;;;17.78;100.00;99464.06;6069256;29;20230;-67
2023/08/01 07:25:20;;;;;;;3.70;2.10;;;;;;;18.02;100.00;99452.38;6030633;29;20224;-66
2023/08/01 07:28:41;;;;;;;3.38;1.65;;;;;;;17.91;99.99;99455.00;6057131;29;20233;-67
2023/08/01 07:32:04;;;;;;;2.47;1.83;;;;;;;18.09;99.33;99463.25;6054805;29;20233;-66
2023/08/01 07:35:25;;;;;;;2.58;1.83;;;;;;;18.18;98.73;99468.25;6050452;29;20546;-67
2023/08/01 07:38:45;;;;;;;4.20;2.90;;;;;;;17.82;98.84;99454.41;6050847;29;20233;-66
2023/08/01 07:42:06;;;;;;;2.30;1.92;;;;;;;18.09;99.11;99463.25;6062216;29;20305;-66
2023/08/01 07:45:27;;;;;;;5.13;2.25;;;;;;;18.52;98.72;99464.28;6056232;29;20233;-67
2023/08/01 07:48:50;;;;;;;3.33;2.28;;;;;;;18.97;97.47;99463.03;6048746;29;20587;-67
2023/08/01 07:52:11;;;;;;;2.60;2.40;;;;;;;18.49;97.19;99467.44;6058677;29;20229;-67
2023/08/01 07:55:34;;;;;;;4.18;2.63;;;;;;;18.61;97.18;99467.56;6053760;29;20225;-67
2023/08/01 07:58:55;;;;;;;3.33;2.25;;;;;;;18.54;96.34;99462.16;6052130;29;20230;-66
2023/08/01 08:02:16;;;;;;;3.17;2.45;;;;;;;18.59;96.52;99467.78;6055690;29;20260;-67
2023/08/01 08:05:39;;;;;;;2.50;2.30;;;;;;;18.97;95.87;99460.31;6052960;29;20629;-66
2023/08/01 08:09:00;;;;;;;4.03;2.33;;;;;;;19.08;95.44;99467.78;6048865;29;20233;-66
2023/08/01 08:12:20;;;;;;;2.95;2.58;;;;;;;19.10;94.06;99459.34;6045473;29;20256;-66
2023/08/01 08:15:42;;;;;;;3.10;2.25;;;;;;;18.95;93.23;99473.34;6053726;29;20245;-68
2023/08/01 08:19:03;;;;;;;4.78;2.78;;;;;;;19.17;92.91;99464.75;6057602;29;20361;-67
2023/08/01 08:22:25;;;;;;;6.10;2.60;;;;;;;19.20;92.55;99472.47;6071800;29;20236;-66
2023/08/01 08:25:46;;;;;;;6.88;2.90;;;;;;;18.92;93.06;99475.72;6057752;29;20811;-67
2023/08/01 08:29:07;;;;;;;2.90;2.70;;;;;;;19.08;92.12;99470.50;6056884;29;20248;-67
2023/08/01 08:32:29;;;;;;;4.22;2.63;;;;;;;19.43;91.01;99465.31;6066312;29;20233;-68
2023/08/01 08:35:49;;;;;;;3.85;2.42;;;;;;;19.37;90.16;99465.38;6058901;29;20225;-67
2023/08/01 08:39:12;;;;;;;6.28;3.65;;;;;;;19.46;90.02;99466.75;6059798;29;20236;-68
2023/08/01 08:42:35;;;;;;;3.00;2.63;;;;;;;19.15;90.74;99476.72;6071948;29;20229;-66
2023/08/01 08:45:58;;;;;;;6.72;2.78;;;;;;;19.09;90.75;99466.69;6067091;29;20263;-67
2023/08/01 08:49:20;;;;;;;5.13;3.10;;;;;;;19.27;90.58;99467.78;6058716;29;20256;-67
2023/08/01 08:52:41;;;;;;;4.18;2.50;;;;;;;19.42;89.77;99460.91;6070630;29;20249;-67
2023/08/01 08:56:03;;;;;;;4.65;2.55;;;;;;;19.67;89.57;99461.66;6063691;29;20241;-67
2023/08/01 08:59:27;;;;;;;4.13;2.70;;;;;;;19.83;89.55;99460.19;6055797;29;20237;-66
2023/08/01 09:02:48;;;;;;;4.13;2.90;;;;;;;19.63;88.25;99459.63;6070229;29;20656;-67
2023/08/01 09:06:15;;;;;;;8.77;3.92;;;;;;;19.80;88.00;99461.50;6065517;29;20328;-67
2023/08/01 09:09:36;;;;;;;3.33;2.35;;;;;;;19.01;89.08;99450.59;6061619;29;20237;-67
2023/08/01 09:12:59;;;;;;;9.10;4.55;;;;;;;19.14;90.77;99460.56;6057796;29;21910;-66
2023/08/01 09:16:19;;;;;;;4.47;2.90;;;;;;;19.02;92.89;99463.19;6064966;29;20241;-67
2023/08/01 09:19:40;;;;;;;4.70;3.95;;;;;;;18.78;94.77;99465.94;6059800;29;20241;-67
2023/08/01 09:23:01;;;;;;;2.88;2.50;;;;;;;18.66;96.46;99465.00;6056765;29;20611;-66
2023/08/01 09:26:22;;;;;;;3.05;2.70;;;;;;;18.27;98.41;99469.66;6061972;29;20241;-67
2023/08/01 09:29:44;;;;;;;5.15;2.05;;;;;;;18.17;99.25;99469.31;6044764;29;20531;-67
2023/08/01 09:33:05;;;;;;;2.83;2.60;;;;;;;18.34;100.00;99469.59;6059673;29;20230;-67
2023/08/01 09:36:26;;;;;;;2.40;1.77;;;;;;;18.23;100.00;99459.41;6060032;29;20237;-67
2023/08/01 09:39:54;;;;;;;4.20;2.08;;;;;;;18.02;100.00;99457.03;6052479;29;21041;-67
2023/08/01 09:43:15;;;;;;;1.77;1.38;;;;;;;18.19;100.00;99453.56;6057247;29;20566;-67
2023/08/01 09:46:37;;;;;;;2.08;1.98;;;;;;;18.81;99.95;99458.16;6066823;29;20301;-67
2023/08/01 09:49:58;;;;;;;1.42;1.33;;;;;;;19.34;98.67;99461.19;6053303;29;20605;-67
2023/08/01 09:53:20;;;;;;;2.85;1.75;;;;;;;19.37;97.10;99465.38;6039463;29;20564;-68
2023/08/01 09:56:45;;;;;;;5.18;2.50;;;;;;;19.52;95.12;99461.22;6066038;29;20595;-68
2023/08/01 10:00:09;;;;;;;3.10;1.98;;;;;;;19.85;93.58;99453.44;6045841;29;20230;-67
2023/08/01 10:03:34;;;;;;;4.78;2.03;;;;;;;19.61;92.50;99454.38;6051543;29;22040;-68
2023/08/01 10:06:58;;;;;;;1.63;1.52;;;;;;;19.14;92.78;99463.28;6065097;29;20233;-68
2023/08/01 10:10:20;;;;;;;1.98;1.67;;;;;;;19.80;92.42;99466.97;6053897;29;20233;-68
2023/08/01 10:13:42;;;;;;;2.22;2.03;;;;;;;19.53;91.30;99462.88;6053519;29;20237;-67
2023/08/01 10:17:03;;;;;;;2.17;1.90;;;;;;;20.05;89.56;99466.81;6070795;29;20241;-67
2023/08/01 10:20:26;;;;;;;3.22;1.80;;;;;;;20.12;88.18;99459.38;6058807;29;20566;-67
2023/08/01 10:23:48;;;;;;;3.72;2.75;;;;;;;20.48;86.22;99447.50;6058825;29;20237;-67
2023/08/01 10:27:13;;;;;;;4.38;2.30;;;;;;;20.36;85.31;99458.41;6049109;29;20615;-66
2023/08/01 10:30:34;;;;;;;1.83;1.40;;;;;;;20.46;85.02;99450.44;6051746;29;20230;-67
2023/08/01 10:34:05;;;;;;;4.05;1.88;;;;;;;20.64;85.15;99447.66;6054121;29;20525;-68
2023/08/01 10:37:28;;;;;;;1.95;1.20;;;;;;;21.05;82.29;99452.22;6064192;29;20229;-69
2023/08/01 10:40:49;;;;;;;2.03;1.42;;;;;;;20.77;81.47;99453.97;6057945;29;20248;-66
2023/08/01 10:44:12;;;;;;;1.80;1.70;;;;;;;20.44;84.24;99460.78;6056537;29;20241;-67
2023/08/01 10:47:33;;;;;;;1.98;1.33;;;;;;;20.53;86.43;99450.34;6065292;29;20229;-68
2023/08/01 10:50:56;;;;;;;1.10;1.00;;;;;;;20.80;85.90;99459.78;6060607;29;20237;-67
2023/08/01 10:54:23;;;;;;;2.50;1.58;;;;;;;20.57;86.13;99457.84;6059163;29;20762;-67
2023/08/01 10:57:48;;;;;;;1.95;1.52;;;;;;;20.17;87.21;99469.63;6065104;29;20617;-68
2023/08/01 11:01:10;;;;;;;1.83;1.23;;;;;;;20.00;87.75;99469.44;6062604;29;20225;-67
2023/08/01 11:04:30;;;;;;;1.10;1.00;;;;;;;19.83;88.88;99485.66;6052147;29;20229;-67
2023/08/01 11:07:55;;;;;;;4.25;1.60;;;;;;;19.59;90.54;99475.63;6060420;29;20230;-67
2023/08/01 11:11:17;;;;;;;1.90;0.90;;;;;;;19.01;91.88;99486.09;6062053;29;20317;-67
2023/08/01 11:14:38;;;;;;;1.70;0.70;;;;;;;18.21;93.02;99497.00;6044433;29;20246;-67
2023/08/01 11:17:59;;;;;;;0.80;0.80;;;;;;;18.12;92.16;99520.13;6055740;29;20237;-66
2023/08/01 11:21:27;;;;;;;1.33;1.05;;;;;;;17.43;94.10;99523.50;6063014;29;20772;-67
2023/08/01 11:24:51;;;;;;;0.85;0.68;;;;;;;17.25;95.73;99530.66;6056750;29;20229;-66
2023/08/01 11:28:16;;;;;;;1.40;0.77;;;;;;;16.77;97.48;99516.47;6055892;29;20802;-66
2023/08/01 11:31:36;;;;;;;0.60;0.60;;;;;;;16.59;98.36;99535.28;6066781;29;20237;-67
2023/08/01 11:34:57;;;;;;;3.97;0.88;;;;;;;16.78;99.56;99524.41;6048127;29;20246;-69
2023/08/01 11:38:18;;;;;;;1.17;0.60;;;;;;;16.71;100.00;99528.16;6052987;29;20233;-67
2023/08/01 11:41:39;;;;;;;0.70;0.70;;;;;;;17.17;100.00;99528.13;6060137;29;20237;-66
2023/08/01 11:45:13;;;;;;;1.60;0.90;;;;;;;17.35;100.00;99531.06;6047970;29;20230;-66
2023/08/01 11:48:34;;;;;;;2.22;1.08;;;;;;;17.42;100.00;99530.00;6054604;29;20611;-66
2023/08/01 11:51:54;;;;;;;1.52;0.95;;;;;;;17.38;100.00;99526.03;6041872;29;20319;-66
2023/08/01 11:55:20;;;;;;;2.22;1.15;;;;;;;17.59;100.00;99524.94;6050181;29;20237;-67
2023/08/01 11:58:42;;;;;;;1.40;1.05;;;;;;;17.84;100.00;99531.38;6054322;29;20244;-67
2023/08/01 12:02:05;;;;;;;1.40;0.70;;;;;;;18.44;99.25;99521.03;6064248;29;20523;-67
2023/08/01 12:05:26;;;;;;;6.35;0.70;;;;;;;19.29;96.83;99510.22;6052758;29;20233;-65
2023/08/01 12:08:49;;;;;;;1.55;0.98;;;;;;;20.55;94.02;99516.66;6057722;29;20289;-66
2023/08/01 12:12:10;;;;;;;2.55;0.85;;;;;;;21.46;90.11;99517.06;6059700;29;20261;-66
2023/08/01 12:15:31;;;;;;;1.30;1.17;;;;;;;20.97;86.55;99531.16;6053297;29;20236;-67
2023/08/01 12:18:53;;;;;;;1.25;0.70;;;;;;;20.08;86.37;99531.22;6056394;29;20237;-66
2023/08/01 12:22:14;;;;;;;1.00;0.75;;;;;;;19.30;88.61;99532.91;6058823;29;20850;-67
2023/08/01 12:25:35;;;;;;;0.75;0.75;;;;;;;19.26;90.24;99529.78;6040929;29;20525;-66
2023/08/01 12:28:56;;;;;;;1.08;0.70;;;;;;;20.24;90.23;99525.97;6055287;29;20356;-67
2023/08/01 12:32:16;;;;;;;2.35;1.00;;;;;;;20.83;87.03;99537.94;6058982;29;20241;-68
2023/08/01 12:35:41;;;;;;;1.48;1.10;;;;;;;19.86;87.15;99539.03;6051009;29;20603;-68
2023/08/01 12:39:03;;;;;;;1.88;1.02;;;;;;;19.10;88.65;99536.69;6052398;29;20226;-68
2023/08/01 12:42:24;;;;;;;1.35;1.25;;;;;;;18.87;91.90;99538.34;6061469;29;20230;-67
2023/08/01 12:45:44;;;;;;;2.00;1.00;;;;;;;18.56;93.74;99535.63;6048027;29;20234;-67
2023/08/01 12:49:05;;;;;;;1.35;1.25;;;;;;;18.14;94.90;99543.41;6059373;29;20316;-68
2023/08/01 12:52:28;;;;;;;0.63;0.63;;;;;;;17.73;97.54;99542.94;6062369;29;20233;-66
2023/08/01 12:55:50;;;;;;;1.08;0.98;;;;;;;17.95;98.83;99544.34;6049616;29;20316;-67
2023/08/01 12:59:11;;;;;;;1.25;0.98;;;;;;;17.99;99.02;99548.31;6048781;29;20248;-67
2023/08/01 13:02:32;;;;;;;2.65;1.67;;;;;;;18.15;99.72;99542.34;6062243;29;20311;-66
2023/08/01 13:05:53;;;;;;;1.85;0.80;;;;;;;18.71;100.00;99547.09;6038422;29;20249;-67
2023/08/01 13:09:15;;;;;;;3.40;0.70;;;;;;;19.15;99.03;99557.84;6048717;29;20229;-66
2023/08/01 13:12:36;;;;;;;3.80;1.25;;;;;;;19.68;96.89;99560.94;6063041;29;20257;-66
2023/08/01 13:15:57;;;;;;;0.70;0.50;;;;;;;19.81;95.18;99560.81;6063466;29;20241;-66
2023/08/01 13:19:17;;;;;;;0.95;0.70;;;;;;;19.72;94.48;99576.66;6051077;29;20233;-67
2023/08/01 13:22:38;;;;;;;1.33;1.00;;;;;;;20.09;93.97;99579.41;6067261;29;20229;-67
2023/08/01 13:26:03;;;;;;;2.05;1.08;;;;;;;20.80;92.24;99574.84;6067295;29;20238;-67
2023/08/01 13:29:24;;;;;;;1.50;1.40;;;;;;;20.88;91.58;99557.25;6058360;29;20255;-68
2023/08/01 13:32:46;;;;;;;1.23;0.93;;;;;;;20.25;91.76;99545.97;6061393;29;20308;-66
2023/08/01 13:36:07;;;;;;;0.93;0.93;;;;;;;19.92;91.82;99540.91;6064034;29;20260;-67
2023/08/01 13:39:28;;;;;;;1.30;1.20;;;;;;;19.68;93.83;99553.56;6051900;29;20222;-67
2023/08/01 13:42:50;;;;;;;3.03;2.30;;;;;;;19.61;94.66;99538.31;6066831;29;20237;-67
2023/08/01 13:46:14;;;;;;;1.45;1.25;;;;;;;19.42;94.90;99542.09;6059960;29;20261;-67
2023/08/01 13:49:35;;;;;;;2.30;1.33;;;;;;;19.45;95.92;99553.41;6057808;29;20248;-67
2023/08/01 13:52:56;;;;;;;1.13;0.80;;;;;;;19.62;96.88;99557.22;6051321;29;20387;-67
2023/08/01 13:56:17;;;;;;;1.00;1.00;;;;;;;20.15;96.73;99562.06;6057368;29;20241;-66
2023/08/01 13:59:39;;;;;;;0.82;0.75;;;;;;;22.36;90.67;99559.38;6058471;29;20237;-66
2023/08/01 14:03:00;;;;;;;1.17;1.10;;;;;;;22.06;87.47;99561.47;6057836;29;20385;-67
2023/08/01 14:06:21;;;;;;;0.75;0.60;;;;;;;21.01;88.72;99571.56;6064165;29;20229;-67
2023/08/01 14:09:42;;;;;;;2.60;0.88;;;;;;;19.83;91.75;99577.81;6057222;29;20262;-67
2023/08/01 14:13:03;;;;;;;1.20;0.73;;;;;;;19.67;93.71;99575.69;6054652;29;20248;-67
2023/08/01 14:16:27;;;;;;;2.70;1.45;;;;;;;19.59;95.02;99586.91;6066167;29;20237;-67
2023/08/01 14:19:48;;;;;;;1.02;0.50;;;;;;;19.23;97.01;99592.28;6057394;29;20229;-66
2023/08/01 14:23:09;;;;;;;0.77;0.50;;;;;;;18.94;98.73;99586.38;6057034;29;20273;-67
2023/08/01 14:26:30;;;;;;;0.40;0.40;;;;;;;18.77;97.85;99590.75;6063193;29;20237;-66
2023/08/01 14:29:51;;;;;;;0.40;0.40;;;;;;;18.70;97.91;99595.38;6051690;29;20226;-67
2023/08/01 14:33:14;;;;;;;0.60;0.60;;;;;;;18.73;97.60;99602.31;6064453;29;20245;-68
2023/08/01 14:36:35;;;;;;;1.05;0.50;;;;;;;18.89;97.32;99601.78;6053637;29;20237;-66
2023/08/01 14:39:56;;;;;;;1.77;0.68;;;;;;;19.28;95.82;99608.81;6052979;29;20655;-68
2023/08/01 14:43:17;;;;;;;1.20;0.57;;;;;;;20.87;92.76;99599.41;6047224;29;20241;-66
2023/08/01 14:46:37;;;;;;;1.30;0.50;;;;;;;21.23;87.61;99605.63;6058407;29;20260;-66
2023/08/01 14:49:59;;;;;;;1.63;0.88;;;;;;;21.51;84.94;99613.16;6040597;29;20248;-67
2023/08/01 14:53:20;;;;;;;1.00;0.70;;;;;;;20.50;84.87;99615.97;6047325;29;20237;-67
2023/08/01 14:56:41;;;;;;;2.53;0.70;;;;;;;19.94;87.25;99637.25;6051760;29;20245;-67
2023/08/01 15:00:03;;;;;;;1.52;0.60;;;;;;;20.00;89.22;99616.34;6047611;29;20332;-66
2023/08/01 15:03:24;;;;;;;0.70;0.70;;;;;;;20.06;89.24;99638.16;6044228;29;20233;-67
2023/08/01 15:06:46;;;;;;;1.42;1.23;;;;;;;20.40;89.99;99640.31;6051688;29;20244;-67
2023/08/01 15:10:08;;;;;;;1.15;0.77;;;;;;;20.33;91.23;99644.19;6048616;29;20233;-67
2023/08/01 15:13:28;;;;;;;1.38;0.70;;;;;;;20.54;90.63;99644.56;6042138;29;20245;-67
2023/08/01 15:16:49;;;;;;;2.00;1.80;;;;;;;21.06;89.99;99640.28;6058831;29;20236;-66
2023/08/01 15:20:11;;;;;;;3.25;1.17;;;;;;;20.58;89.11;99633.97;6037927;29;20347;-66
2023/08/01 15:23:33;;;;;;;0.70;0.70;;;;;;;20.37;90.02;99639.94;6039127;29;20543;-66
2023/08/01 15:26:54;;;;;;;2.03;0.70;;;;;;;20.79;88.46;99643.59;6033156;29;20534;-66
2023/08/01 15:30:15;;;;;;;1.35;0.93;;;;;;;20.57;89.10;99646.81;6015216;29;20272;-66
2023/08/01 15:33:38;;;;;;;0.90;0.70;;;;;;;20.09;89.25;99647.84;6004593;29;20572;-66
2023/08/01 15:36:59;;;;;;;0.90;0.52;;;;;;;19.68;90.90;99662.13;6004176;29;20560;-67
2023/08/01 15:40:21;;;;;;;2.42;0.95;;;;;;;19.58;92.15;99656.34;6010594;29;20236;-67
2023/08/01 15:43:42;;;;;;;1.38;0.93;;;;;;;19.87;92.82;99661.09;6007711;29;20651;-65